Shiro, Texas
Current Conditions -  °F | °C
As of 8:53 AM on Thursday 30 Oct 2014 (Local Time) from KUTS Reporting Station
Clear Clear  
Wind Chill: 55°   Ceiling: Unl
Heat Index: 55°   Visibility: 10mi
Dew Point: 52°   Wind: 3mph
Humidity: 89%   Direction: 80°E
Pressure: 30.16"   Gusts: NA
Location:  30.61°N, 95.89°W
Report Text: KUTS 301353Z AUTO 08003KT 10SM CLR 13/11 A3016 RMK AO2 SLP209 T01280111
Loading
Personal Weather Stations






























Interactive Weather Map
Tropical Storm Tracking
New forecast layout! Learn more

10-Day Weather Forecast

Advertisements
Track Severe Weather on mobile